Time;durP1;ratioP1;P1;durP2;ratioP2;P2;SDS_P1;SDS_P2;PMS_P1;PMS_P2;Temp;Humidity;BMP_temperature;BMP_pressure;BME280_temperature;BME280_humidity;BME280_pressure;Samples;Min_cycle;Max_cycle;Signal;HPM_P1;HPM_P2
2023/08/13 00:02:24;;;;;;;7.70;3.85;;;16.80;99.90;;;;;;5092602;28;20201;-84
2023/08/13 00:04:50;;;;;;;6.55;3.47;;;16.90;99.90;;;;;;5091419;28;20284;-82
2023/08/13 00:07:17;;;;;;;5.30;3.38;;;16.90;99.90;;;;;;5092160;28;20236;-84
2023/08/13 00:09:44;;;;;;;3.72;3.30;;;16.80;99.90;;;;;;5090324;28;20653;-82
2023/08/13 00:12:11;;;;;;;8.07;3.90;;;16.70;99.90;;;;;;5093439;28;20297;-83
2023/08/13 00:14:39;;;;;;;5.25;3.80;;;16.60;99.90;;;;;;5095113;28;20201;-82
2023/08/13 00:17:06;;;;;;;12.77;3.78;;;16.50;99.90;;;;;;5100423;28;20249;-83
2023/08/13 00:19:33;;;;;;;4.55;3.40;;;16.50;99.90;;;;;;5078865;28;20615;-82
2023/08/13 00:21:59;;;;;;;5.75;3.33;;;16.40;99.90;;;;;;5090187;28;20262;-82
2023/08/13 00:24:26;;;;;;;9.15;3.53;;;16.40;99.90;;;;;;5089578;28;20782;-83
2023/08/13 00:26:53;;;;;;;8.27;3.70;;;16.40;99.90;;;;;;5086221;28;20217;-83
2023/08/13 00:29:20;;;;;;;6.13;3.60;;;16.30;99.90;;;;;;5085763;28;20287;-83
2023/08/13 00:31:48;;;;;;;4.50;3.60;;;16.40;99.90;;;;;;5096020;28;20617;-81
2023/08/13 00:34:15;;;;;;;5.32;3.65;;;16.30;99.90;;;;;;5094415;28;20205;-83
2023/08/13 00:36:42;;;;;;;4.60;3.22;;;16.30;99.90;;;;;;5091775;28;20265;-82
2023/08/13 00:39:08;;;;;;;6.43;3.50;;;16.10;99.90;;;;;;5078595;28;20675;-83
2023/08/13 00:41:36;;;;;;;3.85;3.28;;;16.10;99.90;;;;;;5095367;28;20279;-82
2023/08/13 00:44:03;;;;;;;4.78;3.55;;;16.20;99.90;;;;;;5083410;28;20300;-82
2023/08/13 00:46:30;;;;;;;7.57;3.28;;;16.20;99.90;;;;;;5080029;28;20880;-82
2023/08/13 00:49:00;;;;;;;5.68;3.10;;;16.30;99.90;;;;;;5081588;28;20312;-81
2023/08/13 00:51:27;;;;;;;7.82;2.90;;;16.30;99.90;;;;;;5084793;28;20641;-82
2023/08/13 00:53:54;;;;;;;5.75;3.17;;;16.20;99.90;;;;;;5089835;28;20197;-82
2023/08/13 00:56:24;;;;;;;6.10;3.03;;;16.10;99.90;;;;;;5102496;28;20202;-83
2023/08/13 00:58:51;;;;;;;3.80;3.10;;;16.10;99.90;;;;;;5084445;28;20231;-82
2023/08/13 01:01:18;;;;;;;5.22;3.15;;;16.10;99.90;;;;;;5088741;28;20217;-82
2023/08/13 01:03:45;;;;;;;3.45;3.03;;;16.20;99.90;;;;;;5087294;28;20226;-83
2023/08/13 01:06:20;;;;;;;5.18;3.40;;;16.20;99.90;;;;;;5096288;28;20228;-82
2023/08/13 01:09:00;;;;;;;7.97;3.55;;;16.20;99.90;;;;;;5102918;28;20217;-82
2023/08/13 01:11:36;;;;;;;7.22;2.78;;;16.10;99.90;;;;;;5093058;28;20269;-83
2023/08/13 01:14:08;;;;;;;5.43;2.78;;;16.10;99.90;;;;;;5087535;28;20201;-83
2023/08/13 01:16:38;;;;;;;3.22;2.90;;;15.90;99.90;;;;;;5101229;28;20197;-83
2023/08/13 01:19:08;;;;;;;5.60;2.97;;;15.90;99.90;;;;;;5095782;28;20234;-84
2023/08/13 01:21:36;;;;;;;3.47;2.75;;;15.70;99.90;;;;;;5097827;28;20213;-82
2023/08/13 01:24:05;;;;;;;3.25;2.88;;;15.70;99.90;;;;;;5103311;28;20209;-83
2023/08/13 01:26:38;;;;;;;4.90;2.83;;;15.70;99.90;;;;;;5097279;28;20284;-82
2023/08/13 01:29:10;;;;;;;6.60;3.58;;;15.70;99.90;;;;;;5097354;28;20225;-82
2023/08/13 01:31:39;;;;;;;6.75;2.90;;;15.80;99.90;;;;;;5097804;28;20216;-82
2023/08/13 01:34:07;;;;;;;5.40;3.17;;;15.80;99.90;;;;;;5104884;28;20222;-84
2023/08/13 01:36:35;;;;;;;4.80;3.33;;;15.70;99.90;;;;;;5100349;28;20204;-83
2023/08/13 01:39:05;;;;;;;3.78;2.95;;;15.60;99.90;;;;;;5098939;28;20292;-83
2023/08/13 01:41:36;;;;;;;6.10;3.08;;;15.60;99.90;;;;;;5096018;28;20285;-82
2023/08/13 01:44:04;;;;;;;4.32;3.05;;;15.50;99.90;;;;;;5089438;28;20659;-82
2023/08/13 01:46:30;;;;;;;3.28;2.65;;;15.60;99.90;;;;;;5075234;28;20217;-83
2023/08/13 01:48:57;;;;;;;3.83;2.90;;;15.60;99.90;;;;;;5072564;28;20235;-83
2023/08/13 01:51:24;;;;;;;4.88;3.10;;;15.50;99.90;;;;;;5078230;28;20724;-82
2023/08/13 01:53:51;;;;;;;5.75;3.10;;;15.30;99.90;;;;;;5078311;28;20601;-82
2023/08/13 01:56:19;;;;;;;4.18;3.05;;;15.30;99.90;;;;;;5081612;28;20202;-83
2023/08/13 01:58:46;;;;;;;6.28;3.92;;;15.40;99.90;;;;;;5084148;28;20253;-81
2023/08/13 02:01:13;;;;;;;6.35;3.40;;;15.50;99.90;;;;;;5096914;28;20248;-81
2023/08/13 02:03:40;;;;;;;9.43;3.45;;;15.40;99.90;;;;;;5086779;28;20213;-81
2023/08/13 02:06:06;;;;;;;5.88;3.50;;;15.40;99.90;;;;;;5090656;28;20678;-81
2023/08/13 02:08:33;;;;;;;5.25;3.70;;;15.50;99.90;;;;;;5086404;28;20249;-82
2023/08/13 02:11:00;;;;;;;6.68;2.92;;;15.50;99.90;;;;;;5093219;28;20202;-82
2023/08/13 02:13:29;;;;;;;5.25;2.67;;;15.50;99.90;;;;;;5100034;28;20229;-82
2023/08/13 02:16:02;;;;;;;5.70;3.03;;;15.60;99.90;;;;;;5093739;28;20238;-81
2023/08/13 02:18:29;;;;;;;6.95;3.10;;;15.40;99.90;;;;;;5091242;28;20214;-82
2023/08/13 02:20:56;;;;;;;5.65;3.00;;;15.30;99.90;;;;;;5096160;28;20281;-83
2023/08/13 02:23:22;;;;;;;6.07;3.30;;;15.30;99.90;;;;;;5078368;28;20304;-82
2023/08/13 02:25:50;;;;;;;7.28;4.00;;;15.40;99.90;;;;;;5090342;28;20633;-82
2023/08/13 02:28:17;;;;;;;7.18;3.83;;;15.30;99.90;;;;;;5091380;28;20296;-81
2023/08/13 02:30:45;;;;;;;6.32;4.03;;;15.40;99.90;;;;;;5087302;28;20197;-83
2023/08/13 02:33:12;;;;;;;6.53;4.20;;;15.40;99.90;;;;;;5094672;28;20277;-83
2023/08/13 02:35:39;;;;;;;5.95;4.50;;;15.40;99.90;;;;;;5091669;28;20202;-82
2023/08/13 02:38:06;;;;;;;6.88;4.30;;;15.40;99.90;;;;;;5091460;28;20695;-82
2023/08/13 02:40:33;;;;;;;7.35;4.72;;;15.40;99.90;;;;;;5091273;28;20220;-84
2023/08/13 02:42:59;;;;;;;5.18;4.68;;;15.30;99.90;;;;;;5082083;28;20197;-82
2023/08/13 02:45:27;;;;;;;6.53;4.63;;;15.40;99.90;;;;;;5093474;28;20229;-81
2023/08/13 02:47:56;;;;;;;9.25;4.82;;;15.40;99.90;;;;;;5090093;28;20603;-82
2023/08/13 02:50:23;;;;;;;5.43;4.43;;;15.40;99.90;;;;;;5091229;28;20193;-83
2023/08/13 02:52:50;;;;;;;7.35;4.32;;;15.50;99.90;;;;;;5091702;28;20311;-82
2023/08/13 02:55:17;;;;;;;6.05;4.00;;;15.60;99.90;;;;;;5098616;28;20284;-82
2023/08/13 02:57:43;;;;;;;6.65;3.97;;;15.60;99.90;;;;;;5084854;28;20205;-83
2023/08/13 03:00:11;;;;;;;4.20;3.80;;;15.60;99.90;;;;;;5079570;28;20212;-83
2023/08/13 03:02:38;;;;;;;5.63;3.70;;;15.70;99.90;;;;;;5084796;28;20567;-82
2023/08/13 03:05:07;;;;;;;5.63;3.80;;;15.80;99.90;;;;;;5088865;28;20198;-82
2023/08/13 03:07:34;;;;;;;4.22;3.33;;;15.70;99.90;;;;;;5084838;28;20199;-84
2023/08/13 03:10:01;;;;;;;5.47;3.97;;;15.80;99.90;;;;;;5088743;28;20198;-83
2023/08/13 03:12:27;;;;;;;7.82;3.67;;;15.70;99.90;;;;;;5094751;28;20274;-81
2023/08/13 03:14:54;;;;;;;6.28;3.75;;;15.90;99.90;;;;;;5087742;28;20200;-83
2023/08/13 03:17:21;;;;;;;8.15;3.90;;;16.00;99.90;;;;;;5090001;28;20205;-81
2023/08/13 03:19:48;;;;;;;4.68;4.00;;;15.90;99.90;;;;;;5093613;28;20224;-82
2023/08/13 03:22:16;;;;;;;6.05;3.70;;;16.10;99.90;;;;;;5082777;28;20709;-82
2023/08/13 03:24:43;;;;;;;6.97;3.80;;;16.10;99.90;;;;;;5097771;28;20209;-82
2023/08/13 03:27:09;;;;;;;6.18;3.50;;;16.10;99.90;;;;;;5090980;28;20280;-82
2023/08/13 03:29:36;;;;;;;5.03;3.58;;;16.20;99.90;;;;;;5091675;28;20232;-83
2023/08/13 03:32:03;;;;;;;5.70;3.35;;;16.30;99.90;;;;;;5089538;28;20194;-83
2023/08/13 03:34:30;;;;;;;8.43;4.13;;;16.20;99.90;;;;;;5092616;28;20194;-82
2023/08/13 03:36:57;;;;;;;7.43;3.97;;;16.20;99.90;;;;;;5087268;28;20227;-82
2023/08/13 03:39:25;;;;;;;5.95;3.90;;;16.20;99.90;;;;;;5090545;28;20242;-83
2023/08/13 03:41:51;;;;;;;5.53;3.63;;;16.10;99.90;;;;;;5086225;28;20221;-81
2023/08/13 03:44:18;;;;;;;7.18;3.63;;;16.10;99.90;;;;;;5075187;28;20218;-81
2023/08/13 03:46:45;;;;;;;6.10;3.38;;;16.10;99.90;;;;;;5073586;28;20209;-82
2023/08/13 03:49:12;;;;;;;6.90;3.17;;;16.10;99.90;;;;;;5095052;28;20613;-83
2023/08/13 03:51:39;;;;;;;7.97;3.90;;;16.20;99.90;;;;;;5098268;28;20201;-82
2023/08/13 03:54:06;;;;;;;5.53;3.58;;;16.20;99.90;;;;;;5089265;28;20197;-82
2023/08/13 03:56:34;;;;;;;4.90;3.58;;;16.10;99.90;;;;;;5086575;28;20195;-80
2023/08/13 03:59:01;;;;;;;7.07;3.22;;;16.20;99.90;;;;;;5091687;28;20686;-81
2023/08/13 04:01:28;;;;;;;5.72;4.00;;;16.10;99.90;;;;;;5091533;28;20709;-83
2023/08/13 04:03:54;;;;;;;12.30;4.38;;;16.20;99.90;;;;;;5082867;28;20719;-82
2023/08/13 04:06:21;;;;;;;6.55;4.55;;;16.30;99.90;;;;;;5083311;28;20265;-83
2023/08/13 04:08:48;;;;;;;8.65;5.30;;;16.50;99.90;;;;;;5068386;28;20717;-83
2023/08/13 04:11:15;;;;;;;7.68;4.38;;;16.40;99.90;;;;;;5087028;28;20281;-83
2023/08/13 04:13:43;;;;;;;7.22;4.25;;;16.40;99.90;;;;;;5088560;28;20313;-81
2023/08/13 04:16:11;;;;;;;5.35;3.72;;;16.40;99.90;;;;;;5070323;28;20210;-81
2023/08/13 04:18:39;;;;;;;5.18;3.60;;;16.30;99.90;;;;;;5070641;28;20286;-84
2023/08/13 04:21:10;;;;;;;6.95;4.13;;;16.30;99.90;;;;;;5078974;28;20223;-84
2023/08/13 04:23:38;;;;;;;5.45;4.00;;;16.30;99.90;;;;;;5071459;28;20206;-84
2023/08/13 04:26:05;;;;;;;7.95;4.57;;;16.30;99.90;;;;;;5068222;28;20206;-85
2023/08/13 04:28:33;;;;;;;7.22;3.88;;;16.40;99.90;;;;;;5062180;28;20272;-83
2023/08/13 04:31:03;;;;;;;6.00;4.05;;;16.40;99.90;;;;;;5084345;28;20209;-80
2023/08/13 04:33:31;;;;;;;6.90;3.88;;;16.50;99.90;;;;;;5066056;28;20198;-83
2023/08/13 04:35:58;;;;;;;6.65;3.80;;;16.50;99.90;;;;;;5066832;28;20261;-81
2023/08/13 04:38:25;;;;;;;8.80;5.32;;;16.40;99.90;;;;;;5067969;28;20286;-83
2023/08/13 04:40:53;;;;;;;10.43;6.88;;;16.60;99.90;;;;;;5070425;28;20269;-83
2023/08/13 04:43:20;;;;;;;8.68;5.03;;;16.50;99.90;;;;;;5069804;28;20257;-84
2023/08/13 04:45:47;;;;;;;5.57;3.95;;;16.50;99.90;;;;;;5060266;28;20217;-82
2023/08/13 04:48:18;;;;;;;6.28;4.25;;;16.60;99.90;;;;;;5073016;28;20724;-82
2023/08/13 04:50:49;;;;;;;5.63;4.03;;;16.60;99.90;;;;;;5066081;28;20210;-81
2023/08/13 04:53:17;;;;;;;6.10;4.15;;;16.60;99.90;;;;;;5064112;28;20634;-83
2023/08/13 04:55:44;;;;;;;6.05;3.72;;;16.50;99.90;;;;;;5069890;28;20627;-81
2023/08/13 04:58:11;;;;;;;7.25;4.15;;;16.50;99.90;;;;;;5059230;28;20219;-81
2023/08/13 05:00:38;;;;;;;4.28;3.60;;;16.50;99.90;;;;;;5064888;28;20309;-83
2023/08/13 05:03:05;;;;;;;5.07;4.32;;;16.50;99.90;;;;;;5065557;28;20230;-82
2023/08/13 05:05:34;;;;;;;6.63;4.30;;;16.50;99.90;;;;;;5071822;28;20210;-85
2023/08/13 05:08:00;;;;;;;4.20;3.60;;;16.60;99.90;;;;;;5071472;28;20232;-82
2023/08/13 05:10:27;;;;;;;7.80;4.28;;;16.60;99.90;;;;;;5071075;28;20234;-82
2023/08/13 05:12:54;;;;;;;5.22;3.85;;;16.60;99.90;;;;;;5066345;28;20674;-81
2023/08/13 05:15:24;;;;;;;8.00;4.22;;;16.60;99.90;;;;;;5070155;28;20206;-82
2023/08/13 05:17:51;;;;;;;5.32;3.95;;;16.70;99.90;;;;;;5066603;28;20696;-81
2023/08/13 05:20:18;;;;;;;6.03;3.97;;;16.60;99.90;;;;;;5073628;28;20241;-83
2023/08/13 05:22:46;;;;;;;4.90;4.03;;;16.60;99.90;;;;;;5067453;28;20218;-83
2023/08/13 05:25:13;;;;;;;4.65;3.63;;;16.70;99.90;;;;;;5066150;28;20202;-83
2023/08/13 05:27:41;;;;;;;6.43;4.05;;;16.60;99.90;;;;;;5074264;28;20202;-82
2023/08/13 05:30:10;;;;;;;7.55;4.35;;;16.60;99.90;;;;;;5065401;28;20203;-84
2023/08/13 05:32:37;;;;;;;5.95;4.68;;;16.60;99.90;;;;;;5066644;28;20199;-84
2023/08/13 05:35:06;;;;;;;6.78;4.05;;;16.60;99.90;;;;;;5075018;28;20209;-87
2023/08/13 05:37:33;;;;;;;7.07;4.47;;;16.70;99.90;;;;;;5066051;28;20214;-81
2023/08/13 05:40:01;;;;;;;4.47;3.95;;;16.70;99.90;;;;;;5071324;28;20198;-83
2023/08/13 05:42:28;;;;;;;5.93;4.07;;;16.80;99.90;;;;;;5069968;28;20302;-83
2023/08/13 05:44:55;;;;;;;5.70;4.22;;;16.80;99.90;;;;;;5075028;28;20548;-81
2023/08/13 05:47:23;;;;;;;11.60;4.85;;;16.80;99.90;;;;;;5059917;28;20230;-84
2023/08/13 05:49:50;;;;;;;7.75;4.88;;;16.90;99.90;;;;;;5073167;28;20233;-85
2023/08/13 05:52:17;;;;;;;5.70;4.28;;;17.10;99.90;;;;;;5078034;28;20202;-83
2023/08/13 05:54:44;;;;;;;10.27;4.35;;;17.20;99.90;;;;;;5071112;28;20663;-85
2023/08/13 05:57:12;;;;;;;7.18;4.53;;;17.20;99.90;;;;;;5070392;28;20226;-82
2023/08/13 05:59:43;;;;;;;7.60;4.68;;;17.30;99.90;;;;;;5070514;28;20609;-82
2023/08/13 06:02:11;;;;;;;5.90;4.53;;;17.30;99.90;;;;;;5082461;28;20225;-81
2023/08/13 06:04:38;;;;;;;4.95;4.20;;;17.50;99.90;;;;;;5069242;28;20302;-87
2023/08/13 06:07:05;;;;;;;6.35;5.00;;;17.80;99.90;;;;;;5068349;28;20662;-83
2023/08/13 06:09:33;;;;;;;7.88;6.15;;;17.80;99.90;;;;;;5078620;28;20309;-83
2023/08/13 06:12:00;;;;;;;5.70;4.32;;;17.90;99.90;;;;;;5073325;28;20289;-84
2023/08/13 06:14:28;;;;;;;6.05;4.90;;;18.00;99.90;;;;;;5077967;28;20305;-83
2023/08/13 06:16:56;;;;;;;5.38;4.10;;;18.10;99.90;;;;;;5069704;28;20213;-83
2023/08/13 06:19:25;;;;;;;4.93;4.40;;;18.20;99.90;;;;;;5064009;28;20234;-85
2023/08/13 06:21:51;;;;;;;4.60;3.97;;;18.50;99.90;;;;;;5070793;28;20288;-82
2023/08/13 06:24:18;;;;;;;7.25;4.75;;;18.50;99.90;;;;;;5073951;28;20206;-80
2023/08/13 06:26:45;;;;;;;4.90;4.28;;;18.60;99.90;;;;;;5071538;28;20213;-85
2023/08/13 06:29:13;;;;;;;7.22;3.65;;;18.50;99.90;;;;;;5071014;28;20259;-84
2023/08/13 06:31:41;;;;;;;6.60;4.07;;;18.60;99.90;;;;;;5069619;28;20684;-84
2023/08/13 06:34:08;;;;;;;6.60;3.65;;;18.70;99.90;;;;;;5071345;28;20208;-83
2023/08/13 06:36:35;;;;;;;7.55;3.78;;;18.70;99.90;;;;;;5077917;28;20694;-82
2023/08/13 06:39:02;;;;;;;7.28;3.95;;;18.70;99.90;;;;;;5073555;28;20646;-84
2023/08/13 06:41:29;;;;;;;8.68;3.88;;;18.90;99.90;;;;;;5082631;28;20234;-82
2023/08/13 06:43:56;;;;;;;13.95;7.70;;;18.80;99.90;;;;;;5084280;28;20201;-86
2023/08/13 06:46:23;;;;;;;9.50;5.68;;;18.90;99.90;;;;;;5078172;28;20217;-82
2023/08/13 06:48:51;;;;;;;6.97;4.18;;;18.90;99.90;;;;;;5074362;28;20289;-84
2023/08/13 06:51:18;;;;;;;8.60;3.75;;;19.00;99.90;;;;;;5074507;28;20211;-86
2023/08/13 06:53:45;;;;;;;4.47;3.30;;;18.90;99.90;;;;;;5066942;28;20558;-85
2023/08/13 06:56:11;;;;;;;7.13;3.88;;;19.00;99.90;;;;;;5062818;28;20647;-82
2023/08/13 06:58:38;;;;;;;5.40;4.00;;;19.10;99.90;;;;;;5062738;28;20266;-83
2023/08/13 07:01:06;;;;;;;6.20;3.70;;;19.10;99.90;;;;;;5072347;28;20301;-83
2023/08/13 07:03:32;;;;;;;6.28;3.60;;;19.10;99.90;;;;;;5070331;28;20277;-86
2023/08/13 07:06:00;;;;;;;5.57;3.58;;;19.10;99.90;;;;;;5065678;28;20202;-82
2023/08/13 07:08:28;;;;;;;6.38;3.67;;;19.10;99.90;;;;;;5070456;28;20277;-82
2023/08/13 07:10:54;;;;;;;5.10;3.45;;;19.00;99.90;;;;;;5074161;28;20214;-82
2023/08/13 07:13:25;;;;;;;4.95;3.50;;;19.00;99.90;;;;;;5063912;28;20195;-84
2023/08/13 07:15:53;;;;;;;7.32;3.40;;;19.10;99.90;;;;;;5084415;28;20213;-83
2023/08/13 07:18:20;;;;;;;11.32;3.97;;;19.20;99.90;;;;;;5074154;28;20589;-83
2023/08/13 07:20:47;;;;;;;5.28;3.28;;;19.30;99.90;;;;;;5064621;28;20211;-85
2023/08/13 07:23:15;;;;;;;5.65;3.40;;;19.40;99.90;;;;;;5070615;28;20291;-85
2023/08/13 07:25:42;;;;;;;6.07;3.50;;;19.40;99.90;;;;;;5076109;28;20206;-83
2023/08/13 07:28:09;;;;;;;6.70;3.42;;;19.50;99.90;;;;;;5075698;28;20218;-83
2023/08/13 07:30:36;;;;;;;7.45;3.28;;;19.40;99.90;;;;;;5068170;28;20202;-84
2023/08/13 07:33:04;;;;;;;6.18;3.10;;;19.30;99.90;;;;;;5073916;28;20214;-84
2023/08/13 07:35:32;;;;;;;8.27;3.53;;;19.30;99.90;;;;;;5074200;28;20211;-83
2023/08/13 07:37:59;;;;;;;7.88;3.28;;;19.30;99.90;;;;;;5075064;28;20782;-83
2023/08/13 07:40:29;;;;;;;6.10;3.22;;;19.40;99.90;;;;;;5071826;28;20203;-84
2023/08/13 07:43:00;;;;;;;5.00;3.20;;;19.30;99.90;;;;;;5066598;28;20261;-84
2023/08/13 07:45:27;;;;;;;9.75;3.50;;;19.40;99.90;;;;;;5071679;28;20207;-84
2023/08/13 07:47:53;;;;;;;6.97;3.25;;;19.50;99.90;;;;;;5068214;28;20226;-83
2023/08/13 07:50:20;;;;;;;5.15;2.78;;;19.60;99.90;;;;;;5071174;28;20237;-83
2023/08/13 07:52:47;;;;;;;6.30;2.80;;;19.50;99.90;;;;;;5074947;28;20274;-83
2023/08/13 07:55:14;;;;;;;7.20;2.70;;;19.50;99.90;;;;;;5069138;28;20267;-85
2023/08/13 07:57:42;;;;;;;5.90;2.92;;;19.50;99.90;;;;;;5075241;28;20293;-83
2023/08/13 08:00:11;;;;;;;3.42;2.67;;;19.70;99.90;;;;;;5066744;28;20206;-83
2023/08/13 08:02:39;;;;;;;6.55;2.55;;;19.80;99.90;;;;;;5069309;28;20232;-86
2023/08/13 08:05:07;;;;;;;5.57;2.53;;;20.00;99.90;;;;;;5084188;28;20679;-85
2023/08/13 08:07:34;;;;;;;9.57;2.92;;;20.00;99.90;;;;;;5067960;28;20225;-84
2023/08/13 08:10:01;;;;;;;5.05;2.80;;;20.00;99.90;;;;;;5070576;28;20652;-85
2023/08/13 08:12:28;;;;;;;6.25;2.95;;;19.90;99.90;;;;;;5068450;28;20197;-83
2023/08/13 08:14:56;;;;;;;5.32;2.58;;;19.90;99.90;;;;;;5068408;28;20679;-84
2023/08/13 08:17:23;;;;;;;7.13;3.15;;;19.90;99.90;;;;;;5072040;28;20209;-84
2023/08/13 08:19:50;;;;;;;5.22;2.72;;;19.90;99.90;;;;;;5075092;28;20226;-84
2023/08/13 08:22:17;;;;;;;6.35;2.63;;;19.90;99.90;;;;;;5059622;28;20290;-84
2023/08/13 08:24:44;;;;;;;4.35;2.40;;;20.00;99.90;;;;;;5059709;28;20733;-90
2023/08/13 08:27:10;;;;;;;7.30;2.38;;;20.20;99.90;;;;;;5061710;28;20207;-84
2023/08/13 08:29:37;;;;;;;5.88;2.40;;;20.30;99.90;;;;;;5066496;28;20247;-83
2023/08/13 08:32:05;;;;;;;6.90;2.42;;;20.30;99.90;;;;;;5075009;28;20648;-85
2023/08/13 08:34:34;;;;;;;8.23;2.38;;;20.20;99.90;;;;;;5068792;28;20228;-86
2023/08/13 08:37:03;;;;;;;5.43;2.47;;;20.20;99.90;;;;;;5076055;28;20214;-85
2023/08/13 08:39:30;;;;;;;5.45;2.65;;;20.30;99.90;;;;;;5075780;28;20715;-84
2023/08/13 08:41:58;;;;;;;4.40;2.60;;;20.50;99.90;;;;;;5076891;28;20202;-85
2023/08/13 08:44:25;;;;;;;3.30;2.40;;;20.30;99.90;;;;;;5062345;28;20584;-82
2023/08/13 08:46:54;;;;;;;5.45;2.30;;;20.50;99.90;;;;;;5066343;28;20198;-83
2023/08/13 08:49:22;;;;;;;4.03;2.40;;;20.60;99.90;;;;;;5074099;28;20267;-85
2023/08/13 08:51:50;;;;;;;5.63;2.17;;;20.70;99.90;;;;;;5063755;28;20206;-84
2023/08/13 08:54:18;;;;;;;5.80;2.85;;;20.70;99.90;;;;;;5059172;28;20198;-86
2023/08/13 08:56:45;;;;;;;4.57;2.22;;;20.80;99.90;;;;;;5070448;28;20268;-84
2023/08/13 08:59:12;;;;;;;3.55;1.98;;;21.00;99.90;;;;;;5065443;28;20233;-82
2023/08/13 09:01:40;;;;;;;5.10;2.20;;;21.10;99.90;;;;;;5071357;28;20206;-87
2023/08/13 09:04:07;;;;;;;6.50;2.80;;;21.00;99.90;;;;;;5060344;28;20616;-87
2023/08/13 09:07:00;;;;;;;9.30;2.53;;;21.30;99.90;;;;;;5078630;28;20201;-85
2023/08/13 09:09:28;;;;;;;3.97;2.03;;;21.70;99.90;;;;;;5068763;28;20261;-84
2023/08/13 09:11:56;;;;;;;4.97;1.80;;;22.10;99.90;;;;;;5070846;28;20211;-83
2023/08/13 09:14:23;;;;;;;5.07;2.63;;;22.30;99.90;;;;;;5075745;28;20202;-84
2023/08/13 09:16:51;;;;;;;4.55;2.65;;;22.40;99.90;;;;;;5077152;28;20311;-84
2023/08/13 09:19:19;;;;;;;4.60;2.03;;;22.20;99.90;;;;;;5075808;28;20225;-84
2023/08/13 09:21:49;;;;;;;4.57;2.28;;;22.40;99.90;;;;;;5087624;28;20206;-87
2023/08/13 09:24:18;;;;;;;3.40;2.22;;;23.10;99.90;;;;;;5077463;28;20254;-85
2023/08/13 09:26:45;;;;;;;6.45;2.30;;;23.00;99.90;;;;;;5072349;28;20575;-83
2023/08/13 09:29:12;;;;;;;5.20;2.13;;;23.20;99.90;;;;;;5064295;28;20426;-83
2023/08/13 09:31:40;;;;;;;5.45;2.20;;;23.30;99.90;;;;;;5077967;28;20260;-83
2023/08/13 09:34:06;;;;;;;5.57;2.80;;;24.00;99.90;;;;;;5069619;28;20195;-84
2023/08/13 09:36:34;;;;;;;5.53;2.40;;;23.80;99.90;;;;;;5074919;28;20194;-84
2023/08/13 09:39:01;;;;;;;9.80;2.90;;;24.00;99.90;;;;;;5078210;28;20256;-83
2023/08/13 09:41:29;;;;;;;4.05;2.20;;;23.70;99.90;;;;;;5074703;28;20198;-83
2023/08/13 09:44:00;;;;;;;4.80;1.85;;;23.20;99.90;;;;;;5069073;28;20236;-84
2023/08/13 09:46:28;;;;;;;5.80;2.72;;;23.40;99.90;;;;;;5064941;28;20285;-83
2023/08/13 09:48:58;;;;;;;4.75;2.13;;;23.50;99.90;;;;;;5072948;28;20222;-83
2023/08/13 09:51:30;;;;;;;7.80;2.08;;;23.60;99.90;;;;;;5077237;28;20570;-83
2023/08/13 09:54:04;;;;;;;6.35;2.42;;;23.90;99.90;;;;;;5070060;28;20218;-83
2023/08/13 09:56:34;;;;;;;4.40;2.35;;;23.60;99.90;;;;;;5066135;28;20677;-84
2023/08/13 09:59:01;;;;;;;7.53;2.50;;;24.00;99.90;;;;;;5072407;28;20226;-84
2023/08/13 10:01:29;;;;;;;4.07;1.88;;;24.00;99.90;;;;;;5074015;28;20290;-83
2023/08/13 10:03:57;;;;;;;6.82;2.72;;;23.80;99.90;;;;;;5076378;28;20224;-83
2023/08/13 10:06:24;;;;;;;7.35;2.67;;;23.70;99.90;;;;;;5063404;28;20278;-83
2023/08/13 10:08:52;;;;;;;6.50;2.53;;;23.50;99.90;;;;;;5073621;28;20573;-83
2023/08/13 10:11:22;;;;;;;6.68;2.78;;;23.70;99.90;;;;;;5067110;28;20222;-83
2023/08/13 10:13:51;;;;;;;5.25;2.22;;;24.10;99.90;;;;;;5067039;28;20282;-82
2023/08/13 10:16:18;;;;;;;5.15;2.30;;;24.60;99.90;;;;;;5069329;28;20203;-83
2023/08/13 10:18:47;;;;;;;6.45;2.85;;;24.40;99.90;;;;;;5079379;28;20218;-83
2023/08/13 10:21:14;;;;;;;5.10;2.70;;;24.10;99.90;;;;;;5071738;28;20669;-84
2023/08/13 10:23:41;;;;;;;5.38;2.28;;;23.90;99.90;;;;;;5068346;28;20226;-83
2023/08/13 10:26:09;;;;;;;3.40;2.35;;;23.90;99.90;;;;;;5081727;28;20230;-84
2023/08/13 10:28:36;;;;;;;4.47;3.00;;;23.80;99.90;;;;;;5080043;28;20222;-84
2023/08/13 10:31:30;;;;;;;5.35;1.92;;;23.80;99.90;;;;;;5080277;28;20678;-84
2023/08/13 10:34:11;;;;;;;5.43;2.25;;;23.90;99.90;;;;;;5074848;28;20650;-82
2023/08/13 10:36:45;;;;;;;5.20;2.78;;;23.90;99.90;;;;;;5063808;28;20207;-82
2023/08/13 10:39:32;;;;;;;5.68;2.67;;;24.00;99.90;;;;;;5070500;28;20714;-83
2023/08/13 10:41:59;;;;;;;4.43;2.20;;;23.60;99.90;;;;;;5068670;28;20257;-83
2023/08/13 10:44:30;;;;;;;5.70;2.50;;;23.50;99.90;;;;;;5067034;28;20999;-84
2023/08/13 10:46:59;;;;;;;3.75;2.22;;;23.70;99.90;;;;;;5069556;28;20199;-85
2023/08/13 10:49:27;;;;;;;3.17;2.28;;;23.80;99.90;;;;;;5070460;28;21828;-83
2023/08/13 10:51:54;;;;;;;5.47;2.65;;;23.80;99.90;;;;;;5074745;28;20206;-83
2023/08/13 10:54:26;;;;;;;2.60;2.40;;;23.50;99.90;;;;;;5068238;28;20219;-85
2023/08/13 10:56:58;;;;;;;5.47;2.20;;;23.70;99.90;;;;;;5078432;28;20289;-84
2023/08/13 10:59:29;;;;;;;4.28;1.77;;;23.70;99.90;;;;;;5074904;28;20218;-86
2023/08/13 11:02:20;;;;;;;4.55;2.03;;;23.60;99.90;;;;;;5067328;28;20246;-82
2023/08/13 11:04:47;;;;;;;5.43;2.00;;;23.60;99.90;;;;;;5067396;28;20224;-84
2023/08/13 11:07:15;;;;;;;3.47;2.25;;;23.50;99.90;;;;;;5061406;28;20643;-84
2023/08/13 11:09:43;;;;;;;6.85;2.42;;;23.70;99.90;;;;;;5073922;28;20290;-83
2023/08/13 11:12:11;;;;;;;5.18;2.10;;;23.80;99.90;;;;;;5067868;28;20210;-84
2023/08/13 11:14:38;;;;;;;4.90;2.22;;;24.20;99.90;;;;;;5076852;28;20202;-82
2023/08/13 11:17:05;;;;;;;5.72;2.15;;;24.20;99.90;;;;;;5070318;28;20229;-83
2023/08/13 11:19:34;;;;;;;4.28;2.20;;;24.20;99.90;;;;;;5080714;28;20219;-84
2023/08/13 11:22:02;;;;;;;5.40;2.42;;;24.30;99.90;;;;;;5077988;28;20570;-83
2023/08/13 11:24:31;;;;;;;5.28;2.10;;;24.40;99.90;;;;;;5063272;28;20231;-84
2023/08/13 11:26:58;;;;;;;4.95;2.28;;;24.20;99.90;;;;;;5060978;28;20199;-85
2023/08/13 11:29:25;;;;;;;4.38;2.00;;;24.40;99.90;;;;;;5071345;28;20681;-83
2023/08/13 11:31:52;;;;;;;5.25;2.60;;;24.40;99.90;;;;;;5080101;28;20204;-83
2023/08/13 11:34:19;;;;;;;4.85;2.15;;;24.90;99.90;;;;;;5072771;28;20207;-83
2023/08/13 11:36:50;;;;;;;3.22;1.98;;;24.90;99.90;;;;;;5065384;28;20205;-84
2023/08/13 11:39:18;;;;;;;3.63;2.30;;;25.30;99.90;;;;;;5069853;28;20596;-84
2023/08/13 11:41:46;;;;;;;6.13;2.13;;;25.30;99.90;;;;;;5071969;28;20640;-84
2023/08/13 11:44:13;;;;;;;4.65;2.10;;;25.30;99.90;;;;;;5068760;28;20783;-84
2023/08/13 11:46:53;;;;;;;5.45;2.30;;;25.30;99.90;;;;;;5073612;28;20207;-81
2023/08/13 11:49:21;;;;;;;4.68;2.28;;;25.10;99.90;;;;;;5062106;28;20228;-82
2023/08/13 11:51:49;;;;;;;3.13;2.08;;;25.30;99.90;;;;;;5072360;28;20206;-83
2023/08/13 11:54:19;;;;;;;5.13;2.47;;;25.20;99.90;;;;;;5073324;28;20234;-82
2023/08/13 11:56:46;;;;;;;3.15;2.00;;;25.40;99.90;;;;;;5073155;28;20286;-82
2023/08/13 11:59:13;;;;;;;3.72;2.08;;;25.30;99.90;;;;;;5065088;28;20234;-85
2023/08/13 12:01:40;;;;;;;2.45;1.98;;;25.70;99.90;;;;;;5071788;28;20209;-79
2023/08/13 12:04:08;;;;;;;6.35;1.85;;;25.60;99.90;;;;;;5074947;28;20222;-80
2023/08/13 12:06:35;;;;;;;4.82;2.28;;;25.50;99.90;;;;;;5067627;28;20258;-81
2023/08/13 12:09:04;;;;;;;3.05;1.67;;;25.30;99.90;;;;;;5070694;28;20250;-78
2023/08/13 12:11:32;;;;;;;3.83;1.80;;;24.90;99.90;;;;;;5078294;28;20685;-79
2023/08/13 12:14:07;;;;;;;5.07;2.38;;;25.20;99.90;;;;;;5077008;28;20208;-81
2023/08/13 12:16:34;;;;;;;5.18;2.50;;;24.70;99.90;;;;;;5078607;28;20261;-81
2023/08/13 12:19:03;;;;;;;3.67;2.10;;;25.00;99.90;;;;;;5076741;28;20226;-80
2023/08/13 12:21:30;;;;;;;2.10;1.90;;;25.10;99.90;;;;;;5068798;28;20261;-81
2023/08/13 12:23:57;;;;;;;3.75;2.22;;;25.20;99.90;;;;;;5078412;28;20219;-79
2023/08/13 12:26:26;;;;;;;4.28;2.40;;;25.00;99.90;;;;;;5078590;28;20214;-81
2023/08/13 12:28:54;;;;;;;4.22;2.35;;;25.20;99.90;;;;;;5074353;28;20226;-80
2023/08/13 12:31:21;;;;;;;4.53;2.17;;;25.40;99.90;;;;;;5077071;28;20194;-79
2023/08/13 12:33:48;;;;;;;5.38;2.53;;;25.90;99.90;;;;;;5076210;28;20267;-80
2023/08/13 12:36:15;;;;;;;4.15;2.50;;;25.80;99.90;;;;;;5073823;28;20233;-79
2023/08/13 12:38:42;;;;;;;3.47;2.03;;;26.10;99.90;;;;;;5069908;28;20253;-82
2023/08/13 12:41:09;;;;;;;2.83;1.88;;;25.90;99.90;;;;;;5074672;28;20190;-82
2023/08/13 12:43:38;;;;;;;4.47;2.50;;;25.90;99.90;;;;;;5076230;28;20257;-82
2023/08/13 12:46:06;;;;;;;4.00;2.28;;;26.00;99.90;;;;;;5071022;28;20202;-81
2023/08/13 12:48:35;;;;;;;4.72;2.15;;;25.70;99.90;;;;;;5075806;28;20254;-79
2023/08/13 12:51:03;;;;;;;2.65;1.98;;;26.60;99.90;;;;;;5070689;28;20199;-81